Presidente Olegario, Brazil
Current Conditions -  °F | °C
As of 12:00 AM on Sunday 26 Oct 2014 (Local Time) from SBUL Reporting Station
Overcast Overcast  
Wind Chill: 18°   Ceiling: 7000
Heat Index: 18°   Visibility: 6mi
Dew Point: 17°   Wind: 9mph
Humidity: 94%   Direction: 130°SE
Pressure: 30.06"   Gusts: NA
Location:  18.42°S, 46.42°W
Report Text: SBUL 260200Z 13008KT 9999 FEW005 OVC070 18/17 Q1018
Loading
Personal Weather Stations






























Interactive Weather Map
Tropical Storm Tracking
New forecast layout! Learn more

10-Day Weather Forecast

Advertisements
Track Severe Weather on mobile